createdAt,value
2023-05-06T00:00:15.142Z,1.90
2023-05-06T00:01:15.120Z,1.40
2023-05-06T00:02:22.045Z,0.90
2023-05-06T00:03:15.187Z,1.00
2023-05-06T00:04:15.101Z,1.20
2023-05-06T00:05:15.082Z,0.90
2023-05-06T00:06:15.407Z,1.30
2023-05-06T00:07:15.030Z,1.40
2023-05-06T00:08:15.024Z,1.70
2023-05-06T00:09:15.013Z,1.00
2023-05-06T00:10:15.027Z,2.20
2023-05-06T00:11:14.995Z,1.20
2023-05-06T00:12:15.981Z,1.00
2023-05-06T00:13:15.423Z,1.30
2023-05-06T00:14:14.987Z,1.10
2023-05-06T00:15:14.946Z,1.20
2023-05-06T00:16:15.036Z,1.60
2023-05-06T00:17:14.922Z,2.20
2023-05-06T00:18:14.964Z,1.80
2023-05-06T00:19:14.904Z,1.30
2023-05-06T00:20:15.187Z,1.30
2023-05-06T00:21:14.874Z,2.20
2023-05-06T00:22:14.876Z,2.30
2023-05-06T00:23:14.852Z,1.30
2023-05-06T00:24:14.893Z,1.60
2023-05-06T00:25:14.843Z,1.60
2023-05-06T00:26:14.853Z,1.40
2023-05-06T00:27:15.111Z,1.40
2023-05-06T00:28:14.833Z,2.90
2023-05-06T00:29:14.785Z,0.90
2023-05-06T00:30:14.874Z,1.40
2023-05-06T00:31:14.777Z,1.40
2023-05-06T00:32:14.816Z,1.60
2023-05-06T00:33:14.754Z,1.40
2023-05-06T00:34:15.050Z,1.40
2023-05-06T00:35:14.752Z,1.80
2023-05-06T00:36:14.784Z,2.00
2023-05-06T00:37:14.700Z,1.50
2023-05-06T00:38:14.716Z,0.90
2023-05-06T00:39:14.689Z,1.40
2023-05-06T00:40:14.701Z,1.90
2023-05-06T00:41:14.961Z,1.70
2023-05-06T00:42:14.719Z,1.00
2023-05-06T00:43:14.688Z,0.90
2023-05-06T00:44:14.646Z,0.90
2023-05-06T00:45:14.637Z,1.10
2023-05-06T00:46:14.720Z,1.20
2023-05-06T00:47:14.605Z,1.60
2023-05-06T00:48:14.989Z,2.10
2023-05-06T00:49:14.585Z,1.60
2023-05-06T00:50:14.579Z,1.60
2023-05-06T00:51:15.523Z,1.10
2023-05-06T00:52:14.551Z,0.80
2023-05-06T00:53:14.540Z,2.00
2023-05-06T00:54:14.568Z,1.00
2023-05-06T00:55:14.823Z,1.40
2023-05-06T00:56:14.541Z,2.30
2023-05-06T00:57:14.547Z,2.00
2023-05-06T00:58:14.492Z,1.80
2023-05-06T00:59:14.462Z,1.50
2023-05-06T01:00:14.502Z,1.70
2023-05-06T01:01:14.454Z,1.40
2023-05-06T01:02:14.843Z,1.90
2023-05-06T01:03:14.553Z,1.20
2023-05-06T01:04:14.452Z,1.70
2023-05-06T01:05:14.455Z,1.90
2023-05-06T01:06:14.455Z,1.20
2023-05-06T01:07:14.416Z,1.70
2023-05-06T01:08:14.397Z,1.50
2023-05-06T01:09:14.666Z,1.70
2023-05-06T01:10:14.375Z,1.70
2023-05-06T01:11:15.807Z,1.60
2023-05-06T01:12:14.448Z,1.40
2023-05-06T01:13:14.390Z,1.30
2023-05-06T01:14:14.318Z,1.70
2023-05-06T01:15:14.315Z,1.50
2023-05-06T01:16:14.579Z,0.90
2023-05-06T01:17:14.374Z,1.40
2023-05-06T01:18:14.318Z,2.10
2023-05-06T01:19:14.269Z,1.10
2023-05-06T01:20:14.269Z,1.50
2023-05-06T01:21:14.260Z,0.70
2023-05-06T01:22:14.245Z,1.50
2023-05-06T01:23:14.538Z,1.30
2023-05-06T01:24:14.239Z,1.40
2023-05-06T01:25:14.214Z,1.00
2023-05-06T01:26:14.193Z,1.30
2023-05-06T01:27:14.182Z,1.40
2023-05-06T01:28:14.187Z,0.70
2023-05-06T01:29:14.177Z,1.60
2023-05-06T01:30:14.495Z,1.20
2023-05-06T01:31:14.176Z,1.30
2023-05-06T01:32:14.124Z,0.80
2023-05-06T01:33:14.129Z,1.40
2023-05-06T01:34:14.109Z,1.50
2023-05-06T01:35:14.083Z,1.50
2023-05-06T01:36:14.093Z,0.90
2023-05-06T01:37:14.051Z,0.90
2023-05-06T01:38:14.051Z,0.90
2023-05-06T01:39:14.050Z,1.40
2023-05-06T01:40:14.019Z,1.60
2023-05-06T01:41:14.004Z,1.00
2023-05-06T01:42:15.330Z,1.30
2023-05-06T01:43:14.516Z,1.40
2023-05-06T01:44:13.993Z,1.00
2023-05-06T01:45:13.986Z,0.70
2023-05-06T01:46:13.998Z,1.00
2023-05-06T01:47:13.981Z,0.70
2023-05-06T01:48:13.997Z,1.80
2023-05-06T01:49:13.938Z,0.60
2023-05-06T01:50:13.951Z,1.00
2023-05-06T01:51:13.929Z,2.00
2023-05-06T01:52:13.926Z,1.70
2023-05-06T01:53:16.605Z,1.30
2023-05-06T01:54:14.242Z,0.80
2023-05-06T01:55:13.876Z,1.40
2023-05-06T01:56:13.887Z,1.20
2023-05-06T01:57:13.867Z,1.00
2023-05-06T01:58:13.872Z,1.50
2023-05-06T01:59:13.841Z,1.60
2023-05-06T02:00:14.181Z,0.90
2023-05-06T02:01:13.854Z,1.10
2023-05-06T02:02:13.793Z,0.80
2023-05-06T02:03:13.812Z,1.30
2023-05-06T02:04:13.785Z,1.60
2023-05-06T02:05:13.764Z,1.10
2023-05-06T02:06:13.798Z,0.80
2023-05-06T02:07:14.021Z,1.40
2023-05-06T02:08:13.745Z,1.50
2023-05-06T02:09:13.742Z,0.80
2023-05-06T02:10:13.732Z,0.90
2023-05-06T02:11:13.714Z,0.90
2023-05-06T02:12:13.742Z,1.00
2023-05-06T02:13:13.775Z,1.20
2023-05-06T02:14:13.984Z,1.20
2023-05-06T02:15:13.661Z,1.50
2023-05-06T02:16:13.676Z,1.10
2023-05-06T02:17:13.645Z,1.90
2023-05-06T02:18:13.674Z,1.30
2023-05-06T02:19:13.625Z,1.30
2023-05-06T02:20:13.620Z,0.90
2023-05-06T02:21:13.897Z,1.70
2023-05-06T02:22:13.587Z,1.30
2023-05-06T02:23:13.580Z,1.60
2023-05-06T02:24:13.626Z,1.40
2023-05-06T02:25:13.559Z,1.00
2023-05-06T02:26:13.556Z,1.30
2023-05-06T02:27:13.539Z,2.50
2023-05-06T02:28:13.832Z,1.30
2023-05-06T02:29:13.541Z,1.40
2023-05-06T02:30:13.542Z,1.70
2023-05-06T02:31:13.526Z,1.70
2023-05-06T02:32:13.489Z,2.10
2023-05-06T02:33:13.488Z,2.20
2023-05-06T02:34:13.462Z,2.20
2023-05-06T02:35:13.730Z,1.20
2023-05-06T02:36:13.493Z,2.50
2023-05-06T02:37:13.451Z,0.90
2023-05-06T02:38:13.422Z,1.00
2023-05-06T02:39:13.421Z,1.10
2023-05-06T02:40:13.418Z,1.00
2023-05-06T02:41:13.435Z,1.60
2023-05-06T02:42:13.747Z,1.00
2023-05-06T02:43:13.369Z,1.80
2023-05-06T02:44:13.350Z,1.20
2023-05-06T02:45:13.362Z,1.60
2023-05-06T02:46:13.405Z,1.30
2023-05-06T02:47:13.340Z,1.30
2023-05-06T02:48:13.362Z,1.30
2023-05-06T02:49:13.604Z,0.80
2023-05-06T02:50:13.295Z,0.90
2023-05-06T02:51:13.283Z,0.60
2023-05-06T02:52:13.284Z,1.50
2023-05-06T02:53:13.358Z,1.50
2023-05-06T02:54:15.731Z,0.80
2023-05-06T02:55:13.241Z,1.40
2023-05-06T02:56:13.551Z,1.80
2023-05-06T02:57:13.220Z,1.90
2023-05-06T02:58:13.213Z,1.40
2023-05-06T02:59:13.207Z,0.70
2023-05-06T03:00:13.267Z,1.20
2023-05-06T03:01:13.226Z,0.80
2023-05-06T03:02:13.168Z,1.80
2023-05-06T03:03:13.434Z,1.10
2023-05-06T03:04:13.201Z,0.90
2023-05-06T03:05:13.129Z,2.00
2023-05-06T03:06:13.151Z,1.20
2023-05-06T03:07:13.107Z,1.10
2023-05-06T03:08:13.133Z,2.10
2023-05-06T03:09:13.087Z,1.20
2023-05-06T03:10:13.365Z,1.00
2023-05-06T03:11:13.076Z,1.10
2023-05-06T03:12:13.099Z,1.50
2023-05-06T03:13:13.105Z,1.20
2023-05-06T03:14:19.557Z,2.40
2023-05-06T03:15:13.165Z,1.90
2023-05-06T03:16:13.048Z,2.20
2023-05-06T03:17:13.295Z,1.70
2023-05-06T03:18:13.087Z,1.60
2023-05-06T03:19:12.982Z,1.20
2023-05-06T03:20:12.987Z,2.30
2023-05-06T03:21:13.072Z,1.20
2023-05-06T03:22:13.171Z,2.60
2023-05-06T03:23:12.927Z,1.00
2023-05-06T03:24:13.308Z,1.70
2023-05-06T03:25:12.978Z,1.40
2023-05-06T03:26:12.913Z,1.90
2023-05-06T03:27:12.922Z,1.50
2023-05-06T03:28:12.892Z,1.40
2023-05-06T03:29:12.883Z,1.70
2023-05-06T03:30:12.931Z,1.00
2023-05-06T03:31:13.201Z,1.70
2023-05-06T03:32:12.846Z,1.60
2023-05-06T03:33:12.844Z,1.60
2023-05-06T03:34:12.840Z,0.90
2023-05-06T03:35:12.827Z,1.50
2023-05-06T03:36:12.856Z,1.50
2023-05-06T03:37:12.802Z,1.40
2023-05-06T03:38:13.057Z,1.50
2023-05-06T03:39:12.773Z,0.90
2023-05-06T03:40:12.764Z,1.30
2023-05-06T03:41:12.752Z,0.80
2023-05-06T03:42:12.836Z,1.10
2023-05-06T03:43:12.712Z,1.40
2023-05-06T03:44:12.749Z,2.40
2023-05-06T03:45:13.281Z,1.80
2023-05-06T03:46:12.752Z,1.60
2023-05-06T03:47:12.685Z,1.40
2023-05-06T03:48:12.740Z,1.80
2023-05-06T03:49:12.680Z,1.70
2023-05-06T03:50:12.686Z,2.10
2023-05-06T03:51:12.635Z,1.90
2023-05-06T03:52:12.907Z,0.90
2023-05-06T03:53:12.618Z,1.90
2023-05-06T03:54:12.663Z,1.50
2023-05-06T03:55:12.651Z,1.10
2023-05-06T03:56:12.611Z,1.90
2023-05-06T03:57:12.593Z,1.10
2023-05-06T03:58:12.578Z,1.50
2023-05-06T03:59:12.852Z,1.90
2023-05-06T04:00:12.607Z,1.80
2023-05-06T04:01:12.536Z,2.40
2023-05-06T04:02:12.722Z,1.50
2023-05-06T04:03:12.630Z,1.20
2023-05-06T04:04:12.600Z,1.60
2023-05-06T04:05:12.688Z,1.80
2023-05-06T04:06:12.817Z,1.40
2023-05-06T04:07:12.474Z,1.20
2023-05-06T04:08:12.499Z,1.00
2023-05-06T04:09:12.459Z,2.10
2023-05-06T04:10:12.454Z,1.70
2023-05-06T04:11:12.428Z,1.90
2023-05-06T04:12:12.493Z,1.40
2023-05-06T04:13:12.768Z,1.70
2023-05-06T04:14:12.394Z,2.70
2023-05-06T04:15:12.519Z,1.30
2023-05-06T04:16:12.417Z,1.70
2023-05-06T04:17:12.364Z,2.20
2023-05-06T04:18:12.394Z,1.20
2023-05-06T04:19:12.343Z,2.00
2023-05-06T04:20:12.653Z,2.00
2023-05-06T04:21:12.332Z,1.70
2023-05-06T04:22:12.309Z,1.80
2023-05-06T04:23:12.299Z,2.20
2023-05-06T04:24:12.341Z,1.50
2023-05-06T04:25:12.673Z,1.40
2023-05-06T04:26:12.270Z,1.70
2023-05-06T04:27:12.550Z,1.30
2023-05-06T04:28:12.253Z,1.60
2023-05-06T04:29:12.260Z,1.40
2023-05-06T04:30:12.275Z,1.90
2023-05-06T04:31:12.227Z,1.60
2023-05-06T04:32:12.233Z,1.60
2023-05-06T04:33:12.249Z,1.60
2023-05-06T04:34:12.482Z,1.30
2023-05-06T04:35:12.302Z,1.30
2023-05-06T04:36:12.204Z,1.40
2023-05-06T04:37:12.163Z,1.00
2023-05-06T04:38:12.150Z,1.40
2023-05-06T04:39:12.258Z,1.60
2023-05-06T04:40:12.179Z,1.60
2023-05-06T04:41:12.396Z,1.80
2023-05-06T04:42:12.133Z,1.90
2023-05-06T04:43:12.100Z,1.80
2023-05-06T04:44:12.096Z,2.00
2023-05-06T04:45:12.216Z,1.10
2023-05-06T04:46:12.113Z,2.20
2023-05-06T04:47:12.090Z,1.80
2023-05-06T04:48:12.377Z,1.20
2023-05-06T04:49:12.586Z,1.00
2023-05-06T04:50:12.028Z,1.70
2023-05-06T04:51:12.017Z,1.20
2023-05-06T04:52:11.999Z,1.00
2023-05-06T04:53:12.007Z,0.90
2023-05-06T04:54:12.024Z,1.60
2023-05-06T04:55:12.496Z,1.30
2023-05-06T04:56:11.972Z,1.00
2023-05-06T04:57:11.970Z,1.20
2023-05-06T04:58:11.938Z,1.20
2023-05-06T04:59:11.929Z,1.50
2023-05-06T05:00:12.115Z,1.40
2023-05-06T05:01:11.948Z,1.20
2023-05-06T05:02:12.188Z,2.10
2023-05-06T05:03:12.016Z,2.30
2023-05-06T05:04:11.868Z,1.70
2023-05-06T05:05:15.161Z,2.10
2023-05-06T05:06:11.893Z,1.00
2023-05-06T05:07:11.846Z,2.40
2023-05-06T05:08:11.847Z,1.90
2023-05-06T05:09:12.123Z,1.80
2023-05-06T05:10:11.803Z,1.60
2023-05-06T05:11:11.798Z,1.10
2023-05-06T05:12:11.815Z,1.60
2023-05-06T05:13:11.809Z,3.10
2023-05-06T05:14:11.763Z,1.70
2023-05-06T05:15:11.962Z,1.30
2023-05-06T05:16:12.030Z,1.40
2023-05-06T05:17:11.836Z,1.90
2023-05-06T05:18:11.913Z,1.60
2023-05-06T05:19:11.730Z,2.50
2023-05-06T05:20:11.716Z,1.50
2023-05-06T05:21:11.700Z,1.30
2023-05-06T05:22:11.710Z,1.70
2023-05-06T05:23:11.962Z,1.30
2023-05-06T05:24:11.705Z,1.50
2023-05-06T05:25:11.953Z,1.30
2023-05-06T05:26:11.635Z,2.30
2023-05-06T05:27:11.667Z,2.60
2023-05-06T05:28:11.609Z,1.40
2023-05-06T05:29:11.617Z,1.40
2023-05-06T05:30:11.952Z,1.30
2023-05-06T05:31:11.624Z,1.20
2023-05-06T05:32:11.576Z,1.20
2023-05-06T05:33:11.644Z,2.40
2023-05-06T05:34:11.544Z,2.00
2023-05-06T05:35:11.902Z,2.60
2023-05-06T05:36:11.586Z,2.40
2023-05-06T05:37:11.815Z,1.60
2023-05-06T05:38:11.528Z,1.20
2023-05-06T05:39:11.549Z,1.40
2023-05-06T05:40:11.502Z,2.20
2023-05-06T05:41:11.498Z,1.50
2023-05-06T05:42:11.503Z,2.00
2023-05-06T05:43:11.480Z,1.90
2023-05-06T05:44:11.714Z,2.00
2023-05-06T05:45:11.515Z,1.20
2023-05-06T05:46:11.456Z,2.60
2023-05-06T05:47:11.431Z,1.90
2023-05-06T05:48:11.433Z,1.70
2023-05-06T05:49:11.400Z,2.50
2023-05-06T05:50:11.591Z,2.90
2023-05-06T05:51:12.188Z,2.20
2023-05-06T05:52:11.677Z,2.40
2023-05-06T05:53:11.700Z,2.70
2023-05-06T05:54:11.396Z,2.10
2023-05-06T05:55:11.475Z,2.30
2023-05-06T05:56:11.320Z,2.90
2023-05-06T05:57:11.322Z,2.10
2023-05-06T05:58:11.636Z,1.80
2023-05-06T05:59:11.398Z,2.20
2023-05-06T06:00:14.812Z,1.80
2023-05-06T06:01:11.433Z,2.30
2023-05-06T06:02:11.358Z,1.90
2023-05-06T06:03:11.457Z,2.40
2023-05-06T06:04:11.395Z,1.90
2023-05-06T06:05:11.832Z,2.30
2023-05-06T06:06:11.416Z,2.60
2023-05-06T06:07:11.300Z,2.20
2023-05-06T06:08:11.363Z,2.40
2023-05-06T06:09:11.365Z,2.50
2023-05-06T06:10:11.296Z,1.60
2023-05-06T06:11:11.248Z,2.30
2023-05-06T06:12:11.664Z,1.50
2023-05-06T06:13:11.336Z,2.70
2023-05-06T06:14:11.339Z,2.50
2023-05-06T06:15:11.464Z,2.10
2023-05-06T06:16:11.225Z,2.00
2023-05-06T06:17:11.211Z,1.50
2023-05-06T06:18:11.180Z,1.80
2023-05-06T06:19:11.380Z,1.50
2023-05-06T06:20:11.078Z,3.40
2023-05-06T06:21:11.073Z,2.40
2023-05-06T06:22:11.052Z,1.80
2023-05-06T06:23:11.050Z,3.30
2023-05-06T06:24:11.078Z,2.00
2023-05-06T06:25:11.214Z,3.10
2023-05-06T06:26:12.438Z,2.40
2023-05-06T06:27:11.010Z,2.60
2023-05-06T06:28:11.003Z,2.30
2023-05-06T06:29:11.001Z,2.40
2023-05-06T06:30:11.002Z,2.30
2023-05-06T06:31:10.977Z,2.10
2023-05-06T06:32:11.062Z,2.50
2023-05-06T06:33:11.227Z,2.10
2023-05-06T06:34:10.928Z,2.60
2023-05-06T06:35:11.078Z,3.70
2023-05-06T06:36:11.000Z,2.90
2023-05-06T06:37:10.923Z,2.40
2023-05-06T06:38:10.911Z,2.60
2023-05-06T06:39:10.889Z,2.30
2023-05-06T06:40:11.177Z,2.90
2023-05-06T06:41:10.856Z,2.50
2023-05-06T06:42:10.904Z,1.80
2023-05-06T06:43:10.849Z,2.30
2023-05-06T06:44:10.826Z,2.80
2023-05-06T06:45:11.097Z,2.10
2023-05-06T06:46:10.884Z,2.30
2023-05-06T06:47:11.093Z,2.40
2023-05-06T06:48:10.887Z,2.60
2023-05-06T06:49:10.787Z,3.40
2023-05-06T06:50:10.809Z,2.30
2023-05-06T06:51:10.764Z,2.70
2023-05-06T06:52:10.728Z,2.40
2023-05-06T06:53:10.739Z,2.90
2023-05-06T06:54:11.140Z,2.10
2023-05-06T06:55:10.942Z,3.50
2023-05-06T06:56:10.693Z,4.40
2023-05-06T06:57:10.696Z,4.20
2023-05-06T06:58:10.706Z,2.00
2023-05-06T06:59:10.688Z,3.90
2023-05-06T07:00:10.718Z,2.40
2023-05-06T07:01:11.088Z,2.40
2023-05-06T07:02:10.634Z,4.20
2023-05-06T07:03:10.661Z,4.10
2023-05-06T07:04:10.633Z,3.50
2023-05-06T07:05:10.807Z,2.50
2023-05-06T07:06:10.659Z,3.20
2023-05-06T07:07:10.575Z,4.10
2023-05-06T07:08:10.846Z,4.00
2023-05-06T07:09:10.590Z,3.20
2023-05-06T07:10:10.554Z,1.90
2023-05-06T07:11:10.565Z,2.60
2023-05-06T07:12:10.584Z,3.00
2023-05-06T07:13:10.597Z,3.00
2023-05-06T07:14:10.596Z,3.80
2023-05-06T07:15:10.947Z,3.60
2023-05-06T07:16:10.480Z,3.30
2023-05-06T07:17:10.629Z,2.80
2023-05-06T07:18:10.589Z,2.60
2023-05-06T07:19:10.745Z,4.00
2023-05-06T07:20:10.446Z,4.70
2023-05-06T07:21:10.490Z,3.30
2023-05-06T07:22:10.893Z,3.70
2023-05-06T07:23:10.739Z,4.10
2023-05-06T07:24:10.468Z,4.90
2023-05-06T07:25:10.839Z,4.40
2023-05-06T07:26:10.471Z,4.80
2023-05-06T07:27:10.454Z,3.50
2023-05-06T07:28:10.360Z,4.10
2023-05-06T07:29:10.784Z,4.20
2023-05-06T07:30:10.562Z,3.20
2023-05-06T07:31:10.471Z,3.80
2023-05-06T07:32:10.385Z,2.90
2023-05-06T07:33:10.435Z,4.10
2023-05-06T07:34:10.411Z,3.50
2023-05-06T07:35:10.808Z,3.50
2023-05-06T07:36:10.749Z,2.40
2023-05-06T07:37:10.357Z,3.00
2023-05-06T07:38:10.463Z,4.40
2023-05-06T07:39:10.319Z,4.40
2023-05-06T07:40:10.329Z,3.30
2023-05-06T07:41:10.264Z,3.60
2023-05-06T07:42:10.377Z,3.30
2023-05-06T07:43:10.269Z,3.30
2023-05-06T07:44:10.274Z,5.40
2023-05-06T07:45:10.419Z,3.20
2023-05-06T07:46:10.349Z,4.50
2023-05-06T07:47:10.341Z,2.90
2023-05-06T07:48:10.575Z,3.60
2023-05-06T07:49:10.204Z,4.50
2023-05-06T07:50:10.257Z,3.30
2023-05-06T07:51:10.223Z,4.60
2023-05-06T07:52:10.179Z,4.20
2023-05-06T07:53:10.249Z,3.70
2023-05-06T07:54:10.215Z,4.00
2023-05-06T07:55:10.332Z,5.20
2023-05-06T07:56:10.131Z,3.40
2023-05-06T07:57:10.125Z,3.40
2023-05-06T07:58:10.106Z,3.80
2023-05-06T07:59:10.151Z,2.70
2023-05-06T08:00:10.388Z,4.00
2023-05-06T08:01:10.067Z,2.10
2023-05-06T08:02:10.090Z,2.20
2023-05-06T08:03:10.200Z,2.50
2023-05-06T08:04:10.139Z,3.20
2023-05-06T08:05:10.128Z,2.40
2023-05-06T08:06:10.100Z,2.60
2023-05-06T08:07:10.371Z,3.40
2023-05-06T08:08:10.011Z,2.90
2023-05-06T08:09:11.399Z,2.70
2023-05-06T08:10:09.973Z,2.70
2023-05-06T08:11:09.969Z,2.80
2023-05-06T08:12:09.979Z,2.60
2023-05-06T08:13:09.985Z,2.00
2023-05-06T08:14:10.204Z,3.40
2023-05-06T08:15:10.164Z,3.30
2023-05-06T08:16:09.987Z,3.80
2023-05-06T08:17:09.894Z,2.30
2023-05-06T08:18:21.068Z,3.60
2023-05-06T08:19:09.921Z,3.60
2023-05-06T08:20:09.859Z,2.10
2023-05-06T08:21:10.124Z,4.20
2023-05-06T08:22:09.905Z,2.90
2023-05-06T08:23:09.852Z,3.60
2023-05-06T08:24:09.877Z,4.60
2023-05-06T08:25:10.067Z,3.20
2023-05-06T08:26:09.799Z,2.00
2023-05-06T08:27:09.782Z,2.70
2023-05-06T08:28:10.072Z,2.50
2023-05-06T08:29:09.819Z,3.80
2023-05-06T08:30:09.865Z,2.50
2023-05-06T08:31:09.726Z,2.40
2023-05-06T08:32:09.829Z,1.50
2023-05-06T08:33:09.743Z,2.70
2023-05-06T08:34:09.756Z,2.40
2023-05-06T08:35:10.264Z,2.30
2023-05-06T08:36:09.719Z,1.90
2023-05-06T08:37:09.684Z,1.50
2023-05-06T08:38:09.650Z,2.00
2023-05-06T08:39:09.673Z,2.50
2023-05-06T08:40:09.707Z,2.90
2023-05-06T08:41:09.710Z,2.60
2023-05-06T08:42:10.010Z,1.60
2023-05-06T08:43:09.637Z,3.60
2023-05-06T08:44:09.617Z,2.40
2023-05-06T08:45:09.828Z,2.80
2023-05-06T08:46:09.712Z,2.10
2023-05-06T08:47:09.592Z,2.20
2023-05-06T08:48:09.737Z,1.60
2023-05-06T08:49:09.838Z,2.20
2023-05-06T08:50:09.539Z,3.20
2023-05-06T08:51:09.535Z,2.00
2023-05-06T08:52:09.572Z,2.40
2023-05-06T08:53:09.541Z,2.70
2023-05-06T08:54:09.601Z,2.20
2023-05-06T08:55:09.952Z,2.10
2023-05-06T08:56:09.751Z,2.90
2023-05-06T08:57:11.605Z,2.00
2023-05-06T08:58:09.469Z,2.80
2023-05-06T08:59:09.648Z,2.00
2023-05-06T09:00:09.543Z,1.60
2023-05-06T09:01:09.477Z,1.90
2023-05-06T09:02:09.440Z,2.50
2023-05-06T09:03:09.780Z,1.50
2023-05-06T09:04:09.394Z,2.00
2023-05-06T09:05:09.821Z,2.10
2023-05-06T09:06:09.486Z,2.80
2023-05-06T09:07:09.436Z,2.40
2023-05-06T09:08:09.452Z,1.60
2023-05-06T09:09:09.408Z,1.90
2023-05-06T09:10:09.873Z,2.70
2023-05-06T09:11:09.336Z,1.80
2023-05-06T09:12:09.360Z,3.30
2023-05-06T09:13:09.321Z,3.20
2023-05-06T09:14:09.289Z,1.70
2023-05-06T09:15:09.661Z,1.20
2023-05-06T09:16:09.374Z,2.00
2023-05-06T09:17:09.570Z,2.10
2023-05-06T09:18:09.333Z,1.80
2023-05-06T09:19:09.299Z,2.80
2023-05-06T09:20:09.288Z,1.60
2023-05-06T09:21:09.238Z,1.90
2023-05-06T09:22:09.313Z,2.50
2023-05-06T09:23:09.284Z,1.50
2023-05-06T09:24:09.610Z,3.20
2023-05-06T09:25:09.348Z,2.80
2023-05-06T09:26:09.216Z,2.60
2023-05-06T09:27:10.679Z,2.60
2023-05-06T09:28:09.173Z,2.20
2023-05-06T09:29:09.210Z,2.90
2023-05-06T09:30:09.313Z,2.10
2023-05-06T09:31:09.588Z,1.90
2023-05-06T09:32:09.129Z,3.20
2023-05-06T09:33:09.282Z,2.40
2023-05-06T09:34:09.112Z,1.90
2023-05-06T09:35:09.396Z,2.30
2023-05-06T09:36:09.219Z,2.60
2023-05-06T09:37:09.063Z,3.70
2023-05-06T09:38:09.325Z,2.60
2023-05-06T09:39:09.019Z,1.60
2023-05-06T09:40:09.084Z,2.70
2023-05-06T09:41:09.065Z,2.80
2023-05-06T09:42:09.045Z,2.70
2023-05-06T09:43:09.017Z,1.90
2023-05-06T09:44:09.012Z,2.50
2023-05-06T09:45:09.488Z,2.00
2023-05-06T09:46:09.086Z,2.30
2023-05-06T09:47:08.958Z,3.00
2023-05-06T09:48:09.339Z,2.00
2023-05-06T09:49:09.026Z,3.80
2023-05-06T09:50:08.937Z,2.90
2023-05-06T09:51:08.906Z,2.40
2023-05-06T09:52:09.272Z,2.10
2023-05-06T09:53:08.877Z,2.70
2023-05-06T09:54:08.940Z,2.50
2023-05-06T09:55:09.294Z,1.70
2023-05-06T09:56:08.923Z,2.20
2023-05-06T09:57:08.854Z,3.20
2023-05-06T09:58:15.707Z,2.40
2023-05-06T09:59:09.186Z,2.50
2023-05-06T10:00:08.981Z,2.00
2023-05-06T10:01:08.982Z,2.30
2023-05-06T10:02:08.897Z,4.00
2023-05-06T10:03:09.086Z,3.30
2023-05-06T10:04:09.161Z,3.60
2023-05-06T10:05:09.155Z,2.10
2023-05-06T10:06:09.268Z,2.70
2023-05-06T10:07:08.881Z,2.40
2023-05-06T10:08:08.815Z,2.20
2023-05-06T10:09:08.804Z,3.80
2023-05-06T10:10:08.785Z,3.50
2023-05-06T10:11:08.848Z,3.40
2023-05-06T10:12:08.906Z,2.80
2023-05-06T10:13:09.215Z,2.50
2023-05-06T10:14:08.843Z,2.70
2023-05-06T10:15:09.174Z,2.80
2023-05-06T10:16:08.814Z,2.50
2023-05-06T10:17:08.694Z,3.00
2023-05-06T10:18:08.812Z,3.20
2023-05-06T10:19:08.673Z,2.60
2023-05-06T10:20:08.652Z,3.20
2023-05-06T10:21:08.706Z,3.00
2023-05-06T10:22:08.623Z,2.90
2023-05-06T10:23:08.613Z,2.90
2023-05-06T10:24:08.761Z,3.10
2023-05-06T10:25:08.928Z,3.10
2023-05-06T10:26:08.881Z,3.20
2023-05-06T10:27:08.585Z,2.60
2023-05-06T10:28:13.706Z,2.80
2023-05-06T10:29:08.673Z,3.20
2023-05-06T10:30:08.613Z,3.60
2023-05-06T10:31:08.609Z,3.80
2023-05-06T10:32:08.528Z,2.90
2023-05-06T10:33:08.827Z,4.00
2023-05-06T10:34:08.477Z,3.60
2023-05-06T10:35:08.604Z,3.40
2023-05-06T10:36:08.544Z,3.70
2023-05-06T10:37:08.504Z,3.40
2023-05-06T10:38:08.427Z,3.20
2023-05-06T10:39:08.498Z,3.00
2023-05-06T10:40:08.776Z,4.80
2023-05-06T10:41:08.394Z,3.90
2023-05-06T10:42:08.406Z,3.30
2023-05-06T10:43:08.447Z,3.80
2023-05-06T10:44:08.417Z,4.30
2023-05-06T10:45:08.535Z,3.70
2023-05-06T10:46:08.416Z,3.50
2023-05-06T10:47:08.668Z,4.30
2023-05-06T10:48:08.425Z,3.90
2023-05-06T10:49:08.376Z,3.50
2023-05-06T10:50:08.309Z,3.00
2023-05-06T10:51:08.308Z,3.30
2023-05-06T10:52:08.288Z,3.70
2023-05-06T10:53:08.328Z,4.30
2023-05-06T10:54:08.315Z,3.50
2023-05-06T10:55:08.547Z,4.30
2023-05-06T10:56:08.528Z,3.90
2023-05-06T10:57:08.281Z,4.00
2023-05-06T10:58:08.266Z,3.70
2023-05-06T10:59:08.330Z,3.80
2023-05-06T11:00:08.253Z,3.90
2023-05-06T11:01:08.367Z,4.30
2023-05-06T11:02:08.264Z,3.80
2023-05-06T11:03:08.604Z,5.00
2023-05-06T11:04:08.204Z,3.70
2023-05-06T11:05:08.248Z,3.20
2023-05-06T11:06:08.267Z,3.30
2023-05-06T11:07:08.169Z,4.00
2023-05-06T11:08:08.154Z,4.10
2023-05-06T11:09:08.306Z,4.30
2023-05-06T11:10:08.449Z,4.50
2023-05-06T11:11:08.113Z,3.60
2023-05-06T11:12:08.162Z,3.90
2023-05-06T11:13:08.208Z,3.00
2023-05-06T11:14:08.058Z,4.20
2023-05-06T11:15:08.312Z,4.40
2023-05-06T11:16:08.066Z,4.70
2023-05-06T11:17:09.452Z,4.20
2023-05-06T11:18:08.204Z,3.50
2023-05-06T11:19:08.012Z,3.70
2023-05-06T11:20:08.230Z,3.90
2023-05-06T11:21:08.055Z,4.20
2023-05-06T11:22:08.034Z,3.10
2023-05-06T11:23:07.973Z,3.70
2023-05-06T11:24:08.012Z,2.80
2023-05-06T11:25:08.041Z,3.60
2023-05-06T11:26:07.997Z,4.10
2023-05-06T11:27:07.960Z,3.50
2023-05-06T11:28:07.971Z,4.60
2023-05-06T11:29:07.972Z,3.90
2023-05-06T11:30:08.200Z,3.60
2023-05-06T11:31:08.090Z,3.20
2023-05-06T11:32:07.908Z,3.50
2023-05-06T11:33:07.906Z,2.60
2023-05-06T11:34:07.888Z,3.20
2023-05-06T11:35:07.860Z,3.10
2023-05-06T11:36:08.255Z,3.60
2023-05-06T11:37:07.926Z,3.10
2023-05-06T11:38:07.946Z,2.90
2023-05-06T11:39:07.836Z,2.90
2023-05-06T11:40:07.796Z,3.60
2023-05-06T11:41:07.830Z,3.60
2023-05-06T11:42:07.873Z,2.90
2023-05-06T11:43:07.807Z,2.90
2023-05-06T11:44:09.708Z,2.60
2023-05-06T11:45:07.745Z,2.50
2023-05-06T11:46:07.736Z,3.30
2023-05-06T11:47:07.791Z,2.60
2023-05-06T11:48:08.049Z,3.00
2023-05-06T11:49:07.699Z,3.20
2023-05-06T11:50:07.858Z,2.90
2023-05-06T11:51:07.721Z,3.00
2023-05-06T11:52:07.690Z,2.70
2023-05-06T11:53:07.681Z,2.30
2023-05-06T11:54:07.680Z,2.90
2023-05-06T11:55:07.657Z,2.40
2023-05-06T11:56:07.649Z,2.30
2023-05-06T11:57:07.754Z,2.60
2023-05-06T11:58:07.636Z,2.10
2023-05-06T11:59:09.262Z,2.60
2023-05-06T12:00:08.002Z,2.10
2023-05-06T12:01:07.620Z,2.50
2023-05-06T12:02:07.591Z,2.60
2023-05-06T12:03:07.746Z,2.70
2023-05-06T12:04:07.759Z,4.10
2023-05-06T12:05:07.623Z,2.40
2023-05-06T12:06:07.586Z,3.30
2023-05-06T12:07:07.837Z,3.50
2023-05-06T12:08:13.458Z,2.90
2023-05-06T12:09:07.505Z,3.30
2023-05-06T12:10:07.484Z,2.70
2023-05-06T12:11:07.452Z,3.30
2023-05-06T12:12:07.516Z,3.20
2023-05-06T12:13:07.544Z,2.80
2023-05-06T12:14:07.720Z,3.70
2023-05-06T12:15:07.525Z,3.20
2023-05-06T12:16:07.428Z,2.40
2023-05-06T12:17:07.450Z,3.20
2023-05-06T12:18:07.654Z,3.70
2023-05-06T12:19:07.376Z,3.00
2023-05-06T12:20:07.413Z,3.10
2023-05-06T12:21:07.697Z,2.80
2023-05-06T12:22:07.363Z,2.80
2023-05-06T12:23:07.375Z,2.90
2023-05-06T12:24:07.506Z,3.30
2023-05-06T12:25:07.335Z,3.10
2023-05-06T12:26:07.469Z,2.80
2023-05-06T12:27:07.309Z,2.20
2023-05-06T12:28:07.568Z,2.20
2023-05-06T12:29:07.332Z,3.10
2023-05-06T12:30:07.323Z,3.40
2023-05-06T12:31:07.323Z,2.00
2023-05-06T12:32:07.388Z,2.90
2023-05-06T12:33:07.343Z,3.60
2023-05-06T12:34:07.272Z,3.60
2023-05-06T12:35:07.717Z,3.50
2023-05-06T12:36:07.302Z,3.20
2023-05-06T12:37:07.272Z,3.90
2023-05-06T12:38:07.182Z,3.40
2023-05-06T12:39:07.225Z,2.80
2023-05-06T12:40:07.172Z,2.90
2023-05-06T12:41:07.220Z,3.80
2023-05-06T12:42:07.492Z,3.00
2023-05-06T12:43:07.140Z,2.70
2023-05-06T12:44:07.124Z,3.20
2023-05-06T12:45:07.099Z,3.40
2023-05-06T12:46:07.231Z,2.60
2023-05-06T12:47:07.150Z,3.20
2023-05-06T12:48:07.248Z,2.60
2023-05-06T12:49:07.099Z,3.40
2023-05-06T12:50:07.089Z,2.70
2023-05-06T12:51:07.084Z,2.60
2023-05-06T12:52:07.071Z,3.10
2023-05-06T12:53:07.043Z,2.70
2023-05-06T12:54:07.161Z,2.50
2023-05-06T12:55:07.313Z,3.10
2023-05-06T12:56:07.026Z,2.80
2023-05-06T12:57:07.095Z,2.70
2023-05-06T12:58:06.996Z,2.60
2023-05-06T12:59:07.006Z,2.50
2023-05-06T13:00:07.043Z,3.10
2023-05-06T13:01:07.066Z,1.70
2023-05-06T13:02:07.316Z,2.20
2023-05-06T13:03:07.035Z,2.20
2023-05-06T13:04:07.010Z,2.60
2023-05-06T13:05:06.907Z,2.30
2023-05-06T13:06:07.023Z,2.20
2023-05-06T13:07:06.984Z,3.50
2023-05-06T13:08:06.944Z,1.70
2023-05-06T13:09:07.198Z,2.20
2023-05-06T13:10:06.856Z,2.40
2023-05-06T13:11:06.888Z,2.70
2023-05-06T13:12:06.936Z,3.00
2023-05-06T13:13:06.924Z,2.10
2023-05-06T13:14:06.909Z,2.20
2023-05-06T13:15:06.791Z,2.20
2023-05-06T13:16:07.125Z,2.30
2023-05-06T13:17:07.115Z,2.30
2023-05-06T13:18:06.862Z,2.40